Berovo, Macedonia
Current Conditions -  °F | °C
As of 2:00 PM on Saturday 25 Oct 2014 (Local Time) from LWSK Reporting Station
Broken Clouds Broken Clouds  
Wind Chill:   Ceiling: 4000
Heat Index:   Visibility: 6mi
Dew Point:   Wind: 8mph
Humidity: 62%   Direction: 320°NW
Pressure: 30.03"   Gusts: NA
Location:  41.72°N, 22.86°E
Report Text: LWSK 251200Z 32007KT 9999 BKN040 09/02 Q1017 NOSIG
Loading
Personal Weather Stations






























Interactive Weather Map
Tropical Storm Tracking
New forecast layout! Learn more

10-Day Weather Forecast

Advertisements
Track Severe Weather on mobile